^^
Station Historical Data
Daily Summary for December 21, 2017 Units:  Both    English   Metric
« Previous Day
Next Day »
Daily Weekly Monthly Yearly Custom
  High: Low: Average:
Temperature: TemperatureF °F /  -17.8 °C 61.3 °F /  16.3 °C 70.9 °F /  21.6 °C
Dew Point: DewpointF °F /  -17.8 °C 39.6 °F /  4.2 °C 54.4 °F /  12.4 °C
Humidity: Humidity% 29% 62%
Wind Speed: WindSpeedMPHmph /  0km/h - 1.3mph /  2.1km/h
Wind Gust: WindSpeedGustMPHmph /  0km/h - -
Wind- - WSW
Pressure: PressureIn in /  0 hPa 30.15 in /  1020.9 hPa -
Precipitation: 0.00 in /  0 mm    
Historical Graphs
 
 
Tabular Data for December 21, 2017
Time Temperature Dew Point Pressure Wind Wind Speed Wind Gust Humidity Rainfall Rate (Hourly) solar Conditions
TemperatureF °F /  -17.8 °C DewpointF °F /  -17.8 °C PressureInin /  0hPa Calm     Humidity% HourlyPrecipInin /  0mm SolarRadiationWatts/m^2 W/m2 Conditions
00:01 62.8 °F /  17.1 °C 61.3 °F /  16.3 °C 30.28in /  1025.3hPa Calm   1.0mph /  1.6km/h 95% 0.00in /  0mm 0.0 W/m2
00:06 62.8 °F /  17.1 °C 61.3 °F /  16.3 °C 30.27in /  1024.9hPa Calm   2.0mph /  3.2km/h 95% 0.00in /  0mm 0.0 W/m2
00:11 62.8 °F /  17.1 °C 61.3 °F /  16.3 °C 30.27in /  1024.9hPa NNE 0.9mph /  1.4km/h 3.0mph /  4.8km/h 95% 0.00in /  0mm 0.0 W/m2
00:16 62.4 °F /  16.9 °C 60.6 °F /  15.9 °C 30.27in /  1024.9hPa NNE 2.9mph /  4.7km/h 4.0mph /  6.4km/h 94% 0.00in /  0mm 0.0 W/m2
00:22 62.4 °F /  16.9 °C 60.6 °F /  15.9 °C 30.26in /  1024.6hPa Calm   3.0mph /  4.8km/h 94% 0.00in /  0mm 0.0 W/m2
00:27 62.4 °F /  16.9 °C 60.6 °F /  15.9 °C 30.26in /  1024.6hPa NE 2.0mph /  3.2km/h 4.0mph /  6.4km/h 94% 0.00in /  0mm 0.0 W/m2
00:32 62.4 °F /  16.9 °C 60.6 °F /  15.9 °C 30.26in /  1024.6hPa Calm   3.0mph /  4.8km/h 94% 0.00in /  0mm 0.0 W/m2
00:37 62.4 °F /  16.9 °C 60.6 °F /  15.9 °C 30.26in /  1024.6hPa Calm   2.0mph /  3.2km/h 94% 0.00in /  0mm 0.0 W/m2
00:42 62.4 °F /  16.9 °C 60.6 °F /  15.9 °C 30.26in /  1024.6hPa NE 0.9mph /  1.4km/h 2.0mph /  3.2km/h 94% 0.00in /  0mm 0.0 W/m2
00:48 62.4 °F /  16.9 °C 60.6 °F /  15.9 °C 30.26in /  1024.6hPa ENE 0.9mph /  1.4km/h 3.0mph /  4.8km/h 94% 0.00in /  0mm 0.0 W/m2
00:53 62.4 °F /  16.9 °C 60.6 °F /  15.9 °C 30.25in /  1024.3hPa Calm   1.0mph /  1.6km/h 94% 0.00in /  0mm 0.0 W/m2
00:55 62.4 °F /  16.9 °C 60.6 °F /  15.9 °C 30.25in /  1024.3hPa Calm   1.0mph /  1.6km/h 94% 0.00in /  0mm 0.0 W/m2
01:00 62.4 °F /  16.9 °C 60.6 °F /  15.9 °C 30.25in /  1024.3hPa Calm     94% 0.00in /  0mm 0.0 W/m2
01:06 62.4 °F /  16.9 °C 61.0 °F /  16.1 °C 30.25in /  1024.3hPa Calm   1.0mph /  1.6km/h 95% 0.00in /  0mm 0.0 W/m2
01:12 62.4 °F /  16.9 °C 61.0 °F /  16.1 °C 30.25in /  1024.3hPa Calm   1.0mph /  1.6km/h 95% 0.00in /  0mm 0.0 W/m2
01:14 62.4 °F /  16.9 °C 61.0 °F /  16.1 °C 30.25in /  1024.3hPa ENE 0.9mph /  1.4km/h 1.0mph /  1.6km/h 95% 0.00in /  0mm 0.0 W/m2
01:19 62.6 °F /  17 °C 61.2 °F /  16.2 °C 30.24in /  1023.9hPa Calm   1.0mph /  1.6km/h 95% 0.00in /  0mm 0.0 W/m2
01:24 62.6 °F /  17 °C 61.2 °F /  16.2 °C 30.24in /  1023.9hPa Calm     95% 0.00in /  0mm 0.0 W/m2
01:28 62.4 °F /  16.9 °C 61.0 °F /  16.1 °C 30.24in /  1023.9hPa Calm     95% 0.00in /  0mm 0.0 W/m2
01:33 62.4 °F /  16.9 °C 61.0 °F /  16.1 °C 30.24in /  1023.9hPa Calm     95% 0.00in /  0mm 0.0 W/m2
01:38 62.4 °F /  16.9 °C 61.0 °F /  16.1 °C 30.24in /  1023.9hPa Calm     95% 0.00in /  0mm 0.0 W/m2
01:43 62.4 °F /  16.9 °C 61.0 °F /  16.1 °C 30.23in /  1023.6hPa Calm     95% 0.00in /  0mm 0.0 W/m2
01:48 62.6 °F /  17 °C 61.2 °F /  16.2 °C 30.23in /  1023.6hPa Calm     95% 0.00in /  0mm 0.0 W/m2
01:54 62.6 °F /  17 °C 61.2 °F /  16.2 °C 30.23in /  1023.6hPa Calm     95% 0.00in /  0mm 0.0 W/m2
01:57 62.6 °F /  17 °C 61.2 °F /  16.2 °C 30.23in /  1023.6hPa Calm     95% 0.00in /  0mm 0.0 W/m2
02:02 62.4 °F /  16.9 °C 61.0 °F /  16.1 °C 30.23in /  1023.6hPa Calm     95% 0.00in /  0mm 0.0 W/m2
02:07 62.4 °F /  16.9 °C 61.0 °F /  16.1 °C 30.22in /  1023.2hPa Calm     95% 0.00in /  0mm 0.0 W/m2
02:12 62.4 °F /  16.9 °C 61.0 °F /  16.1 °C 30.22in /  1023.2hPa Calm     95% 0.00in /  0mm 0.0 W/m2
02:22 62.4 °F /  16.9 °C 61.0 °F /  16.1 °C 30.22in /  1023.2hPa Calm     95% 0.00in /  0mm 0.0 W/m2
02:27 62.4 °F /  16.9 °C 61.0 °F /  16.1 °C 30.22in /  1023.2hPa Calm     95% 0.00in /  0mm 0.0 W/m2
02:29 62.4 °F /  16.9 °C 61.0 °F /  16.1 °C 30.22in /  1023.2hPa Calm     95% 0.00in /  0mm 0.0 W/m2
02:34 62.4 °F /  16.9 °C 61.0 °F /  16.1 °C 30.22in /  1023.2hPa Calm     95% 0.00in /  0mm 0.0 W/m2
02:39 62.4 °F /  16.9 °C 61.0 °F /  16.1 °C 30.22in /  1023.2hPa Calm     95% 0.00in /  0mm 0.0 W/m2
02:40 62.4 °F /  16.9 °C 61.0 °F /  16.1 °C 30.22in /  1023.2hPa Calm     95% 0.00in /  0mm 0.0 W/m2
02:45 62.4 °F /  16.9 °C 61.0 °F /  16.1 °C 30.22in /  1023.2hPa Calm     95% 0.00in /  0mm 0.0 W/m2
02:50 62.4 °F /  16.9 °C 61.0 °F /  16.1 °C 30.22in /  1023.2hPa Calm     95% 0.00in /  0mm 0.0 W/m2
02:55 62.4 °F /  16.9 °C 61.0 °F /  16.1 °C 30.22in /  1023.2hPa Calm     95% 0.00in /  0mm 0.0 W/m2
03:00 62.4 °F /  16.9 °C 61.0 °F /  16.1 °C 30.21in /  1022.9hPa Calm     95% 0.00in /  0mm 0.0 W/m2
03:05 62.4 °F /  16.9 °C 61.0 °F /  16.1 °C 30.22in /  1023.2hPa Calm     95% 0.00in /  0mm 0.0 W/m2
03:09 62.4 °F /  16.9 °C 61.0 °F /  16.1 °C 30.21in /  1022.9hPa Calm     95% 0.00in /  0mm 0.0 W/m2
03:14 62.4 °F /  16.9 °C 61.0 °F /  16.1 °C 30.22in /  1023.2hPa Calm     95% 0.00in /  0mm 0.0 W/m2
03:20 62.4 °F /  16.9 °C 61.0 °F /  16.1 °C 30.22in /  1023.2hPa Calm     95% 0.00in /  0mm 0.0 W/m2
03:25 62.4 °F /  16.9 °C 61.0 °F /  16.1 °C 30.21in /  1022.9hPa Calm     95% 0.00in /  0mm 0.0 W/m2
03:27 62.4 °F /  16.9 °C 61.0 °F /  16.1 °C 30.21in /  1022.9hPa Calm     95% 0.00in /  0mm 0.0 W/m2
03:33 62.4 °F /  16.9 °C 61.0 °F /  16.1 °C 30.22in /  1023.2hPa Calm     95% 0.00in /  0mm 0.0 W/m2
03:38 62.6 °F /  17 °C 61.2 °F /  16.2 °C 30.21in /  1022.9hPa Calm     95% 0.00in /  0mm 0.0 W/m2
03:43 62.8 °F /  17.1 °C 61.3 °F /  16.3 °C 30.22in /  1023.2hPa Calm     95% 0.00in /  0mm 0.0 W/m2
03:46 62.8 °F /  17.1 °C 61.3 °F /  16.3 °C 30.22in /  1023.2hPa Calm     95% 0.00in /  0mm 0.0 W/m2
03:51 62.8 °F /  17.1 °C 61.3 °F /  16.3 °C 30.22in /  1023.2hPa Calm     95% 0.00in /  0mm 0.0 W/m2
03:56 62.8 °F /  17.1 °C 61.3 °F /  16.3 °C 30.22in /  1023.2hPa Calm     95% 0.00in /  0mm 0.0 W/m2
04:00 62.8 °F /  17.1 °C 61.3 °F /  16.3 °C 30.22in /  1023.2hPa Calm     95% 0.00in /  0mm 0.0 W/m2
04:05 62.8 °F /  17.1 °C 61.3 °F /  16.3 °C 30.22in /  1023.2hPa Calm     95% 0.00in /  0mm 0.0 W/m2
04:07 62.8 °F /  17.1 °C 61.3 °F /  16.3 °C 30.22in /  1023.2hPa Calm     95% 0.00in /  0mm 0.0 W/m2
04:12 62.8 °F /  17.1 °C 61.7 °F /  16.5 °C 30.21in /  1022.9hPa Calm     96% 0.00in /  0mm 0.0 W/m2
04:13 62.8 °F /  17.1 °C 61.7 °F /  16.5 °C 30.21in /  1022.9hPa Calm     96% 0.00in /  0mm 0.0 W/m2
04:18 62.8 °F /  17.1 °C 61.7 °F /  16.5 °C 30.22in /  1023.2hPa Calm     96% 0.00in /  0mm 0.0 W/m2
04:19 62.8 °F /  17.1 °C 61.7 °F /  16.5 °C 30.22in /  1023.2hPa Calm     96% 0.00in /  0mm 0.0 W/m2
04:24 62.8 °F /  17.1 °C 61.3 °F /  16.3 °C 30.22in /  1023.2hPa Calm     95% 0.00in /  0mm 0.0 W/m2
04:27 62.8 °F /  17.1 °C 61.3 °F /  16.3 °C 30.22in /  1023.2hPa Calm     95% 0.00in /  0mm 0.0 W/m2
04:32 62.8 °F /  17.1 °C 61.3 °F /  16.3 °C 30.22in /  1023.2hPa Calm     95% 0.00in /  0mm 0.0 W/m2
04:33 62.8 °F /  17.1 °C 61.7 °F /  16.5 °C 30.22in /  1023.2hPa Calm     96% 0.00in /  0mm 0.0 W/m2
04:38 62.8 °F /  17.1 °C 61.3 °F /  16.3 °C 30.22in /  1023.2hPa Calm     95% 0.00in /  0mm 0.0 W/m2
04:43 62.6 °F /  17 °C 61.2 °F /  16.2 °C 30.22in /  1023.2hPa Calm     95% 0.00in /  0mm 0.0 W/m2
04:48 62.8 °F /  17.1 °C 61.3 °F /  16.3 °C 30.22in /  1023.2hPa Calm     95% 0.00in /  0mm 0.0 W/m2
04:51 62.8 °F /  17.1 °C 61.3 °F /  16.3 °C 30.22in /  1023.2hPa Calm     95% 0.00in /  0mm 0.0 W/m2
04:57 62.8 °F /  17.1 °C 61.7 °F /  16.5 °C 30.22in /  1023.2hPa Calm   1.0mph /  1.6km/h 96% 0.00in /  0mm 0.0 W/m2
05:02 62.8 °F /  17.1 °C 61.7 °F /  16.5 °C 30.22in /  1023.2hPa Calm     96% 0.00in /  0mm 0.0 W/m2
05:07 63.0 °F /  17.2 °C 61.9 °F /  16.6 °C 30.22in /  1023.2hPa Calm     96% 0.00in /  0mm 0.0 W/m2
05:10 63.0 °F /  17.2 °C 61.9 °F /  16.6 °C 30.22in /  1023.2hPa Calm     96% 0.00in /  0mm 0.0 W/m2
05:18 63.0 °F /  17.2 °C 61.9 °F /  16.6 °C 30.23in /  1023.6hPa Calm     96% 0.00in /  0mm 0.0 W/m2
05:23 63.0 °F /  17.2 °C 61.9 °F /  16.6 °C 30.22in /  1023.2hPa Calm     96% 0.00in /  0mm 0.0 W/m2
05:28 63.0 °F /  17.2 °C 61.9 °F /  16.6 °C 30.23in /  1023.6hPa Calm     96% 0.00in /  0mm 0.0 W/m2
05:33 63.0 °F /  17.2 °C 61.9 °F /  16.6 °C 30.23in /  1023.6hPa Calm     96% 0.00in /  0mm 0.0 W/m2
05:34 63.0 °F /  17.2 °C 61.9 °F /  16.6 °C 30.22in /  1023.2hPa Calm     96% 0.00in /  0mm 0.0 W/m2
05:39 63.1 °F /  17.3 °C 62.1 °F /  16.7 °C 30.23in /  1023.6hPa NW 0.9mph /  1.4km/h 1.0mph /  1.6km/h 96% 0.00in /  0mm 0.0 W/m2
05:43 63.1 °F /  17.3 °C 62.1 °F /  16.7 °C 30.23in /  1023.6hPa Calm   1.0mph /  1.6km/h 96% 0.00in /  0mm 0.0 W/m2
05:53 63.1 °F /  17.3 °C 61.7 °F /  16.5 °C 30.23in /  1023.6hPa Calm   3.0mph /  4.8km/h 95% 0.00in /  0mm 0.0 W/m2
05:58 63.0 °F /  17.2 °C 61.5 °F /  16.4 °C 30.23in /  1023.6hPa Calm     95% 0.00in /  0mm 0.0 W/m2
06:00 62.8 °F /  17.1 °C 61.3 °F /  16.3 °C 30.23in /  1023.6hPa Calm   2.0mph /  3.2km/h 95% 0.00in /  0mm 0.0 W/m2
06:05 62.6 °F /  17 °C 61.2 °F /  16.2 °C 30.24in /  1023.9hPa Calm     95% 0.00in /  0mm 0.0 W/m2
06:10 62.2 °F /  16.8 °C 60.8 °F /  16 °C 30.24in /  1023.9hPa Calm   1.0mph /  1.6km/h 95% 0.00in /  0mm 12.0 W/m2
06:15 62.1 °F /  16.7 °C 60.6 °F /  15.9 °C 30.24in /  1023.9hPa Calm   1.0mph /  1.6km/h 95% 0.00in /  0mm 16.0 W/m2
06:20 61.9 °F /  16.6 °C 60.4 °F /  15.8 °C 30.24in /  1023.9hPa NNW 2.0mph /  3.2km/h 3.0mph /  4.8km/h 95% 0.00in /  0mm 18.0 W/m2
06:26 61.7 °F /  16.5 °C 59.9 °F /  15.5 °C 30.24in /  1023.9hPa Calm     94% 0.00in /  0mm 23.0 W/m2
06:31 61.5 °F /  16.4 °C 59.7 °F /  15.4 °C 30.24in /  1023.9hPa Calm     94% 0.00in /  0mm 30.0 W/m2
06:36 61.5 °F /  16.4 °C 59.7 °F /  15.4 °C 30.24in /  1023.9hPa Calm     94% 0.00in /  0mm 37.0 W/m2
06:37 61.5 °F /  16.4 °C 60.1 °F /  15.6 °C 30.24in /  1023.9hPa Calm     95% 0.00in /  0mm 39.0 W/m2
06:42 61.5 °F /  16.4 °C 60.1 °F /  15.6 °C 30.24in /  1023.9hPa Calm     95% 0.00in /  0mm 47.0 W/m2
06:47 61.3 °F /  16.3 °C 59.9 °F /  15.5 °C 30.24in /  1023.9hPa Calm     95% 0.00in /  0mm 47.0 W/m2
06:52 61.3 °F /  16.3 °C 59.9 °F /  15.5 °C 30.24in /  1023.9hPa Calm     95% 0.00in /  0mm 51.0 W/m2
06:57 61.3 °F /  16.3 °C 59.5 °F /  15.3 °C 30.24in /  1023.9hPa Calm     94% 0.00in /  0mm 62.0 W/m2
07:02 61.5 °F /  16.4 °C 60.1 °F /  15.6 °C 30.24in /  1023.9hPa Calm     95% 0.00in /  0mm 70.0 W/m2
07:04 61.5 °F /  16.4 °C 60.1 °F /  15.6 °C 30.24in /  1023.9hPa Calm     95% 0.00in /  0mm 74.0 W/m2
07:09 61.9 °F /  16.6 °C 60.4 °F /  15.8 °C 30.24in /  1023.9hPa Calm     95% 0.00in /  0mm 86.0 W/m2
07:14 62.1 °F /  16.7 °C 60.6 °F /  15.9 °C 30.24in /  1023.9hPa Calm     95% 0.00in /  0mm 104.0 W/m2
07:19 62.1 °F /  16.7 °C 60.6 °F /  15.9 °C 30.24in /  1023.9hPa Calm     95% 0.00in /  0mm 116.0 W/m2
07:25 62.2 °F /  16.8 °C 60.4 °F /  15.8 °C 30.24in /  1023.9hPa Calm     94% 0.00in /  0mm 111.0 W/m2
07:30 62.4 °F /  16.9 °C 60.4 °F /  15.8 °C 30.24in /  1023.9hPa Calm     93% 0.00in /  0mm 95.0 W/m2
07:35 62.6 °F /  17 °C 60.6 °F /  15.9 °C 30.25in /  1024.3hPa Calm     93% 0.00in /  0mm 90.0 W/m2
07:40 62.8 °F /  17.1 °C 60.4 °F /  15.8 °C 30.25in /  1024.3hPa Calm     92% 0.00in /  0mm 84.0 W/m2
07:45 63.0 °F /  17.2 °C 59.9 °F /  15.5 °C 30.25in /  1024.3hPa Calm     90% 0.00in /  0mm 84.0 W/m2
07:50 63.1 °F /  17.3 °C 60.4 °F /  15.8 °C 30.25in /  1024.3hPa Calm     91% 0.00in /  0mm 93.0 W/m2
07:55 63.3 °F /  17.4 °C 60.3 °F /  15.7 °C 30.25in /  1024.3hPa Calm     90% 0.00in /  0mm 114.0 W/m2
08:00 63.7 °F /  17.6 °C 60.6 °F /  15.9 °C 30.25in /  1024.3hPa Calm     90% 0.00in /  0mm 139.0 W/m2
08:05 63.9 °F /  17.7 °C 60.6 °F /  15.9 °C 30.25in /  1024.3hPa Calm     89% 0.00in /  0mm 156.0 W/m2
08:11 64.2 °F /  17.9 °C 60.6 °F /  15.9 °C 30.25in /  1024.3hPa Calm     88% 0.00in /  0mm 165.0 W/m2
08:16 64.6 °F /  18.1 °C 61.0 °F /  16.1 °C 30.25in /  1024.3hPa Calm     88% 0.00in /  0mm 135.0 W/m2
08:21 64.9 °F /  18.3 °C 61.3 °F /  16.3 °C 30.25in /  1024.3hPa East 0.9mph /  1.4km/h 1.0mph /  1.6km/h 88% 0.00in /  0mm 118.0 W/m2
08:22 64.9 °F /  18.3 °C 61.3 °F /  16.3 °C 30.25in /  1024.3hPa Calm   1.0mph /  1.6km/h 88% 0.00in /  0mm 118.0 W/m2
08:28 65.3 °F /  18.5 °C 61.3 °F /  16.3 °C 30.25in /  1024.3hPa Calm   1.0mph /  1.6km/h 87% 0.00in /  0mm 91.0 W/m2
08:33 65.5 °F /  18.6 °C 61.2 °F /  16.2 °C 30.25in /  1024.3hPa Calm   1.0mph /  1.6km/h 86% 0.00in /  0mm 77.0 W/m2
08:38 65.7 °F /  18.7 °C 61.3 °F /  16.3 °C 30.26in /  1024.6hPa Calm   2.0mph /  3.2km/h 86% 0.00in /  0mm 79.0 W/m2
08:42 65.8 °F /  18.8 °C 61.5 °F /  16.4 °C 30.25in /  1024.3hPa Calm   1.0mph /  1.6km/h 86% 0.00in /  0mm 84.0 W/m2
08:47 66.0 °F /  18.9 °C 61.3 °F /  16.3 °C 30.26in /  1024.6hPa Calm   1.0mph /  1.6km/h 85% 0.00in /  0mm 90.0 W/m2
08:57 66.2 °F /  19 °C 60.8 °F /  16 °C 30.26in /  1024.6hPa Calm     83% 0.00in /  0mm 120.0 W/m2
09:02 66.4 °F /  19.1 °C 61.0 °F /  16.1 °C 30.26in /  1024.6hPa Calm   1.0mph /  1.6km/h 83% 0.00in /  0mm 148.0 W/m2
09:08 66.6 °F /  19.2 °C 61.5 °F /  16.4 °C 30.26in /  1024.6hPa Calm     84% 0.00in /  0mm 193.0 W/m2
09:09 66.6 °F /  19.2 °C 61.2 °F /  16.2 °C 30.26in /  1024.6hPa Calm     83% 0.00in /  0mm 199.0 W/m2
09:14 66.7 °F /  19.3 °C 61.0 °F /  16.1 °C 30.26in /  1024.6hPa Calm   2.0mph /  3.2km/h 82% 0.00in /  0mm 227.0 W/m2
09:15 66.6 °F /  19.2 °C 61.2 °F /  16.2 °C 30.26in /  1024.6hPa Calm     83% 0.00in /  0mm 204.0 W/m2
09:20 67.1 °F /  19.5 °C 61.2 °F /  16.2 °C 30.26in /  1024.6hPa Calm   1.0mph /  1.6km/h 81% 0.00in /  0mm 253.0 W/m2
09:22 67.3 °F /  19.6 °C 61.2 °F /  16.2 °C 30.26in /  1024.6hPa Calm   1.0mph /  1.6km/h 81% 0.00in /  0mm 257.0 W/m2
09:27 67.6 °F /  19.8 °C 61.0 °F /  16.1 °C 30.26in /  1024.6hPa Calm   1.0mph /  1.6km/h 79% 0.00in /  0mm 262.0 W/m2
09:32 67.8 °F /  19.9 °C 60.3 °F /  15.7 °C 30.26in /  1024.6hPa Calm     77% 0.00in /  0mm 269.0 W/m2
09:38 68.4 °F /  20.2 °C 60.4 °F /  15.8 °C 30.25in /  1024.3hPa Calm     76% 0.00in /  0mm 295.0 W/m2
09:44 68.9 °F /  20.5 °C 60.6 °F /  15.9 °C 30.25in /  1024.3hPa NE 0.9mph /  1.4km/h 3.0mph /  4.8km/h 75% 0.00in /  0mm 329.0 W/m2
09:49 69.3 °F /  20.7 °C 60.6 °F /  15.9 °C 30.25in /  1024.3hPa North 2.0mph /  3.2km/h 3.0mph /  4.8km/h 74% 0.00in /  0mm 369.0 W/m2
09:54 69.6 °F /  20.9 °C 59.7 °F /  15.4 °C 30.25in /  1024.3hPa Calm   1.0mph /  1.6km/h 71% 0.00in /  0mm 390.0 W/m2
09:59 70.2 °F /  21.2 °C 60.3 °F /  15.7 °C 30.25in /  1024.3hPa NNW 2.0mph /  3.2km/h 3.0mph /  4.8km/h 71% 0.00in /  0mm 480.0 W/m2
10:04 70.5 °F /  21.4 °C 59.4 °F /  15.2 °C 30.26in /  1024.6hPa Calm   1.0mph /  1.6km/h 68% 0.00in /  0mm 424.0 W/m2
10:09 71.1 °F /  21.7 °C 58.6 °F /  14.8 °C 30.25in /  1024.3hPa Calm   2.0mph /  3.2km/h 65% 0.00in /  0mm 473.0 W/m2
10:14 71.4 °F /  21.9 °C 57.7 °F /  14.3 °C 30.26in /  1024.6hPa NNW 2.0mph /  3.2km/h 3.0mph /  4.8km/h 62% 0.00in /  0mm 555.0 W/m2
10:24 72.7 °F /  22.6 °C 55.0 °F /  12.8 °C 30.26in /  1024.6hPa NNE 2.0mph /  3.2km/h 6.0mph /  9.7km/h 54% 0.00in /  0mm 603.0 W/m2
10:29 73.0 °F /  22.8 °C 53.8 °F /  12.1 °C 30.26in /  1024.6hPa NNW 0.9mph /  1.4km/h 2.0mph /  3.2km/h 51% 0.00in /  0mm 424.0 W/m2
10:34 73.2 °F /  22.9 °C 51.8 °F /  11 °C 30.26in /  1024.6hPa North 0.9mph /  1.4km/h 2.0mph /  3.2km/h 47% 0.00in /  0mm 390.0 W/m2
10:38 73.6 °F /  23.1 °C 53.8 °F /  12.1 °C 30.26in /  1024.6hPa NE 0.9mph /  1.4km/h 3.0mph /  4.8km/h 50% 0.00in /  0mm 527.0 W/m2
10:43 73.9 °F /  23.3 °C 53.6 °F /  12 °C 30.26in /  1024.6hPa Calm   2.0mph /  3.2km/h 49% 0.00in /  0mm 645.0 W/m2
10:49 74.3 °F /  23.5 °C 54.0 °F /  12.2 °C 30.26in /  1024.6hPa NNW 5.0mph /  8km/h 5.0mph /  8km/h 49% 0.00in /  0mm 926.0 W/m2
10:50 74.5 °F /  23.6 °C 53.4 °F /  11.9 °C 30.26in /  1024.6hPa Calm   5.0mph /  8km/h 48% 0.00in /  0mm 993.0 W/m2
10:55 75.2 °F /  24 °C 53.6 °F /  12 °C 30.26in /  1024.6hPa NE 0.9mph /  1.4km/h 2.0mph /  3.2km/h 47% 0.00in /  0mm 1069.0 W/m2
11:01 76.1 °F /  24.5 °C 56.1 °F /  13.4 °C 30.26in /  1024.6hPa Calm   3.0mph /  4.8km/h 50% 0.00in /  0mm 977.0 W/m2
11:06 76.6 °F /  24.8 °C 55.4 °F /  13 °C 30.26in /  1024.6hPa Calm   2.0mph /  3.2km/h 48% 0.00in /  0mm 940.0 W/m2
11:11 77.2 °F /  25.1 °C 56.5 °F /  13.6 °C 30.26in /  1024.6hPa Calm   4.0mph /  6.4km/h 49% 0.00in /  0mm 599.0 W/m2
11:16 77.4 °F /  25.2 °C 56.7 °F /  13.7 °C 30.26in /  1024.6hPa Calm   4.0mph /  6.4km/h 49% 0.00in /  0mm 561.0 W/m2
11:22 77.5 °F /  25.3 °C 56.3 °F /  13.5 °C 30.26in /  1024.6hPa Calm   3.0mph /  4.8km/h 48% 0.00in /  0mm 596.0 W/m2
11:27 77.5 °F /  25.3 °C 56.3 °F /  13.5 °C 30.25in /  1024.3hPa WSW 4.9mph /  7.9km/h 7.0mph /  11.3km/h 48% 0.00in /  0mm 543.0 W/m2
11:29 77.5 °F /  25.3 °C 56.8 °F /  13.8 °C 30.26in /  1024.6hPa NNE 4.0mph /  6.4km/h 6.0mph /  9.7km/h 49% 0.00in /  0mm 545.0 W/m2
11:34 77.5 °F /  25.3 °C 56.3 °F /  13.5 °C 30.26in /  1024.6hPa Calm   2.0mph /  3.2km/h 48% 0.00in /  0mm 527.0 W/m2
11:39 77.5 °F /  25.3 °C 56.8 °F /  13.8 °C 30.26in /  1024.6hPa SW 2.0mph /  3.2km/h 5.0mph /  8km/h 49% 0.00in /  0mm 504.0 W/m2
11:44 76.8 °F /  24.9 °C 57.4 °F /  14.1 °C 30.26in /  1024.6hPa WNW 2.0mph /  3.2km/h 6.0mph /  9.7km/h 51% 0.00in /  0mm 448.0 W/m2
11:49 76.6 °F /  24.8 °C 58.3 °F /  14.6 °C 30.25in /  1024.3hPa Calm   4.0mph /  6.4km/h 53% 0.00in /  0mm 438.0 W/m2
11:55 76.5 °F /  24.7 °C 56.5 °F /  13.6 °C 30.26in /  1024.6hPa Calm   2.0mph /  3.2km/h 50% 0.00in /  0mm 513.0 W/m2
12:01 76.8 °F /  24.9 °C 57.9 °F /  14.4 °C 30.25in /  1024.3hPa West 2.0mph /  3.2km/h 2.0mph /  3.2km/h 52% 0.00in /  0mm 524.0 W/m2
12:04 76.8 °F /  24.9 °C 57.9 °F /  14.4 °C 30.25in /  1024.3hPa WNW 0.9mph /  1.4km/h 8.0mph /  12.9km/h 52% 0.00in /  0mm 548.0 W/m2
12:11 77.4 °F /  25.2 °C 57.7 °F /  14.3 °C 30.25in /  1024.3hPa NNW 4.0mph /  6.4km/h 7.0mph /  11.3km/h 51% 0.00in /  0mm 570.0 W/m2
12:17 77.4 °F /  25.2 °C 58.3 °F /  14.6 °C 30.25in /  1024.3hPa NNW 0.9mph /  1.4km/h 7.0mph /  11.3km/h 52% 0.00in /  0mm 612.0 W/m2
12:21 77.5 °F /  25.3 °C 57.9 °F /  14.4 °C 30.25in /  1024.3hPa North 4.0mph /  6.4km/h 6.0mph /  9.7km/h 51% 0.00in /  0mm 830.0 W/m2
12:28 77.7 °F /  25.4 °C 57.6 °F /  14.2 °C 30.25in /  1024.3hPa North 4.0mph /  6.4km/h 7.0mph /  11.3km/h 50% 0.00in /  0mm 1013.0 W/m2
12:33 77.9 °F /  25.5 °C 56.7 °F /  13.7 °C 30.25in /  1024.3hPa NNE 6.9mph /  11.1km/h 9.0mph /  14.5km/h 48% 0.00in /  0mm 1099.0 W/m2
12:34 77.9 °F /  25.5 °C 57.2 °F /  14 °C 30.25in /  1024.3hPa NE 4.9mph /  7.9km/h 8.0mph /  12.9km/h 49% 0.00in /  0mm 1113.0 W/m2
12:39 78.3 °F /  25.7 °C 55.2 °F /  12.9 °C 30.25in /  1024.3hPa ENE 2.9mph /  4.7km/h 5.0mph /  8km/h 45% 0.00in /  0mm 1104.0 W/m2
12:44 78.6 °F /  25.9 °C 55.6 °F /  13.1 °C 30.25in /  1024.3hPa NNW 2.0mph /  3.2km/h 7.0mph /  11.3km/h 45% 0.00in /  0mm 1255.0 W/m2
12:49 79.2 °F /  26.2 °C 55.9 °F /  13.3 °C 30.24in /  1023.9hPa NE 2.0mph /  3.2km/h 9.0mph /  14.5km/h 45% 0.00in /  0mm 1266.0 W/m2
12:53 79.2 °F /  26.2 °C 55.4 °F /  13 °C 30.24in /  1023.9hPa NE 2.9mph /  4.7km/h 4.0mph /  6.4km/h 44% 0.00in /  0mm 1164.0 W/m2
12:58 79.9 °F /  26.6 °C 57.2 °F /  14 °C 30.24in /  1023.9hPa NNW 2.0mph /  3.2km/h 3.0mph /  4.8km/h 46% 0.00in /  0mm 513.0 W/m2
13:00 80.1 °F /  26.7 °C 56.1 °F /  13.4 °C 30.24in /  1023.9hPa North 2.9mph /  4.7km/h 6.0mph /  9.7km/h 44% 0.00in /  0mm 520.0 W/m2
13:06 79.9 °F /  26.6 °C 55.9 °F /  13.3 °C 30.24in /  1023.9hPa NW 0.9mph /  1.4km/h 9.0mph /  14.5km/h 44% 0.00in /  0mm 830.0 W/m2
13:11 80.1 °F /  26.7 °C 55.6 °F /  13.1 °C 30.24in /  1023.9hPa NW 8.9mph /  14.3km/h 12.0mph /  19.3km/h 43% 0.00in /  0mm 780.0 W/m2
13:16 80.1 °F /  26.7 °C 56.1 °F /  13.4 °C 30.24in /  1023.9hPa NNW 2.9mph /  4.7km/h 12.0mph /  19.3km/h 44% 0.00in /  0mm 497.0 W/m2
13:21 79.9 °F /  26.6 °C 55.9 °F /  13.3 °C 30.24in /  1023.9hPa NW 2.0mph /  3.2km/h 7.0mph /  11.3km/h 44% 0.00in /  0mm 596.0 W/m2
13:26 79.7 °F /  26.5 °C 55.9 °F /  13.3 °C 30.24in /  1023.9hPa NNW 2.0mph /  3.2km/h 5.0mph /  8km/h 44% 0.00in /  0mm 659.0 W/m2
13:31 79.5 °F /  26.4 °C 55.0 °F /  12.8 °C 30.23in /  1023.6hPa NE 2.9mph /  4.7km/h 8.0mph /  12.9km/h 43% 0.00in /  0mm 629.0 W/m2
13:34 79.5 °F /  26.4 °C 56.8 °F /  13.8 °C 30.23in /  1023.6hPa North 6.0mph /  9.7km/h 7.0mph /  11.3km/h 46% 0.00in /  0mm 1058.0 W/m2
13:40 79.5 °F /  26.4 °C 56.3 °F /  13.5 °C 30.23in /  1023.6hPa North 6.0mph /  9.7km/h 8.0mph /  12.9km/h 45% 0.00in /  0mm 1000.0 W/m2
13:45 79.5 °F /  26.4 °C 56.3 °F /  13.5 °C 30.23in /  1023.6hPa NW 2.0mph /  3.2km/h 8.0mph /  12.9km/h 45% 0.00in /  0mm 905.0 W/m2
13:50 79.9 °F /  26.6 °C 55.4 °F /  13 °C 30.23in /  1023.6hPa NNW 2.9mph /  4.7km/h 5.0mph /  8km/h 43% 0.00in /  0mm 877.0 W/m2
13:57 81.0 °F /  27.2 °C 53.6 °F /  12 °C 30.23in /  1023.6hPa NW 4.0mph /  6.4km/h 6.0mph /  9.7km/h 39% 0.00in /  0mm 918.0 W/m2
14:02 81.3 °F /  27.4 °C 56.1 °F /  13.4 °C 30.22in /  1023.2hPa NW 4.0mph /  6.4km/h 8.0mph /  12.9km/h 42% 0.00in /  0mm 840.0 W/m2
14:04 81.3 °F /  27.4 °C 55.4 °F /  13 °C 30.22in /  1023.2hPa NNE 8.9mph /  14.3km/h 11.0mph /  17.7km/h 41% 0.00in /  0mm 877.0 W/m2
14:10 81.0 °F /  27.2 °C 55.0 °F /  12.8 °C 30.22in /  1023.2hPa Calm   7.0mph /  11.3km/h 41% 0.00in /  0mm 673.0 W/m2
14:15 80.8 °F /  27.1 °C 55.6 °F /  13.1 °C 30.22in /  1023.2hPa WSW 4.0mph /  6.4km/h 4.0mph /  6.4km/h 42% 0.00in /  0mm 622.0 W/m2
14:21 80.2 °F /  26.8 °C 55.8 °F /  13.2 °C 30.22in /  1023.2hPa NNW 6.9mph /  11.1km/h 9.0mph /  14.5km/h 43% 0.00in /  0mm 643.0 W/m2
14:26 80.1 °F /  26.7 °C 56.1 °F /  13.4 °C 30.22in /  1023.2hPa NNW 4.9mph /  7.9km/h 7.0mph /  11.3km/h 44% 0.00in /  0mm 490.0 W/m2
14:31 80.1 °F /  26.7 °C 56.1 °F /  13.4 °C 30.22in /  1023.2hPa North 4.9mph /  7.9km/h 9.0mph /  14.5km/h 44% 0.00in /  0mm 626.0 W/m2
14:32 80.1 °F /  26.7 °C 56.1 °F /  13.4 °C 30.22in /  1023.2hPa NNW 6.0mph /  9.7km/h 9.0mph /  14.5km/h 44% 0.00in /  0mm 647.0 W/m2
14:37 80.1 °F /  26.7 °C 55.6 °F /  13.1 °C 30.21in /  1022.9hPa NNE 6.9mph /  11.1km/h 10.0mph /  16.1km/h 43% 0.00in /  0mm 831.0 W/m2
14:38 80.1 °F /  26.7 °C 56.1 °F /  13.4 °C 30.21in /  1022.9hPa NNE 8.9mph /  14.3km/h 10.0mph /  16.1km/h 44% 0.00in /  0mm 853.0 W/m2
14:43 80.1 °F /  26.7 °C 55.6 °F /  13.1 °C 30.21in /  1022.9hPa North 2.9mph /  4.7km/h 11.0mph /  17.7km/h 43% 0.00in /  0mm 828.0 W/m2
14:53 80.8 °F /  27.1 °C 54.9 °F /  12.7 °C 30.20in /  1022.6hPa NW 4.0mph /  6.4km/h 10.0mph /  16.1km/h 41% 0.00in /  0mm 969.0 W/m2
14:58 81.1 °F /  27.3 °C 54.5 °F /  12.5 °C 30.20in /  1022.6hPa NNW 6.0mph /  9.7km/h 11.0mph /  17.7km/h 40% 0.00in /  0mm 587.0 W/m2
15:03 81.0 °F /  27.2 °C 55.0 °F /  12.8 °C 30.20in /  1022.6hPa NNW 2.0mph /  3.2km/h 7.0mph /  11.3km/h 41% 0.00in /  0mm 563.0 W/m2
15:09 81.0 °F /  27.2 °C 55.0 °F /  12.8 °C 30.20in /  1022.6hPa NNW 2.9mph /  4.7km/h 8.0mph /  12.9km/h 41% 0.00in /  0mm 512.0 W/m2
15:14 80.8 °F /  27.1 °C 54.9 °F /  12.7 °C 30.20in /  1022.6hPa NNW 4.0mph /  6.4km/h 9.0mph /  14.5km/h 41% 0.00in /  0mm 499.0 W/m2
15:18 80.8 °F /  27.1 °C 54.1 °F /  12.3 °C 30.20in /  1022.6hPa North 0.9mph /  1.4km/h 7.0mph /  11.3km/h 40% 0.00in /  0mm 506.0 W/m2
15:24 81.0 °F /  27.2 °C 54.3 °F /  12.4 °C 30.19in /  1022.2hPa NNW 6.9mph /  11.1km/h 9.0mph /  14.5km/h 40% 0.00in /  0mm 550.0 W/m2
15:25 81.0 °F /  27.2 °C 53.6 °F /  12 °C 30.19in /  1022.2hPa NNW 2.9mph /  4.7km/h 9.0mph /  14.5km/h 39% 0.00in /  0mm 577.0 W/m2
15:30 81.1 °F /  27.3 °C 54.5 °F /  12.5 °C 30.19in /  1022.2hPa NNW 4.9mph /  7.9km/h 9.0mph /  14.5km/h 40% 0.00in /  0mm 1079.0 W/m2
15:35 82.2 °F /  27.9 °C 54.9 °F /  12.7 °C 30.19in /  1022.2hPa West 2.9mph /  4.7km/h 9.0mph /  14.5km/h 39% 0.00in /  0mm 1013.0 W/m2
15:40 82.8 °F /  28.2 °C 54.5 °F /  12.5 °C 30.19in /  1022.2hPa NE 6.0mph /  9.7km/h 10.0mph /  16.1km/h 38% 0.00in /  0mm 970.0 W/m2
15:45 83.3 °F /  28.5 °C 54.3 °F /  12.4 °C 30.18in /  1021.9hPa NW 2.0mph /  3.2km/h 4.0mph /  6.4km/h 37% 0.00in /  0mm 570.0 W/m2
15:51 83.5 °F /  28.6 °C 53.8 °F /  12.1 °C 30.18in /  1021.9hPa NNW 4.9mph /  7.9km/h 9.0mph /  14.5km/h 36% 0.00in /  0mm 573.0 W/m2
16:01 82.4 °F /  28 °C 53.6 °F /  12 °C 30.18in /  1021.9hPa NNE 4.0mph /  6.4km/h 8.0mph /  12.9km/h 37% 0.00in /  0mm 446.0 W/m2
16:04 82.2 °F /  27.9 °C 53.4 °F /  11.9 °C 30.18in /  1021.9hPa NNE 6.9mph /  11.1km/h 9.0mph /  14.5km/h 37% 0.00in /  0mm 410.0 W/m2
16:09 81.5 °F /  27.5 °C 52.7 °F /  11.5 °C 30.17in /  1021.6hPa NNW 2.0mph /  3.2km/h 4.0mph /  6.4km/h 37% 0.00in /  0mm 394.0 W/m2
16:14 81.3 °F /  27.4 °C 52.5 °F /  11.4 °C 30.17in /  1021.6hPa ENE 4.0mph /  6.4km/h 7.0mph /  11.3km/h 37% 0.00in /  0mm 410.0 W/m2
16:19 81.3 °F /  27.4 °C 52.5 °F /  11.4 °C 30.16in /  1021.2hPa North 2.0mph /  3.2km/h 10.0mph /  16.1km/h 37% 0.00in /  0mm 427.0 W/m2
16:24 81.7 °F /  27.6 °C 52.9 °F /  11.6 °C 30.16in /  1021.2hPa NNW 4.9mph /  7.9km/h 7.0mph /  11.3km/h 37% 0.00in /  0mm 547.0 W/m2
16:30 81.5 °F /  27.5 °C 52.7 °F /  11.5 °C 30.16in /  1021.2hPa North 6.0mph /  9.7km/h 6.0mph /  9.7km/h 37% 0.00in /  0mm 278.0 W/m2
16:35 81.3 °F /  27.4 °C 51.8 °F /  11 °C 30.15in /  1020.9hPa NNW 6.0mph /  9.7km/h 7.0mph /  11.3km/h 36% 0.00in /  0mm 329.0 W/m2
16:40 81.3 °F /  27.4 °C 51.1 °F /  10.6 °C 30.15in /  1020.9hPa West 0.9mph /  1.4km/h 4.0mph /  6.4km/h 35% 0.00in /  0mm 265.0 W/m2
16:44 81.5 °F /  27.5 °C 50.4 °F /  10.2 °C 30.16in /  1021.2hPa West 6.0mph /  9.7km/h 6.0mph /  9.7km/h 34% 0.00in /  0mm 260.0 W/m2
16:50 81.7 °F /  27.6 °C 51.4 °F /  10.8 °C 30.16in /  1021.2hPa West 0.9mph /  1.4km/h 8.0mph /  12.9km/h 35% 0.00in /  0mm 446.0 W/m2
16:52 81.7 °F /  27.6 °C 50.5 °F /  10.3 °C 30.16in /  1021.2hPa Calm   3.0mph /  4.8km/h 34% 0.00in /  0mm 320.0 W/m2
16:58 82.0 °F /  27.8 °C 50.9 °F /  10.5 °C 30.16in /  1021.2hPa NNW 2.9mph /  4.7km/h 6.0mph /  9.7km/h 34% 0.00in /  0mm 338.0 W/m2
17:04 82.0 °F /  27.8 °C 50.9 °F /  10.5 °C 30.16in /  1021.2hPa Calm   5.0mph /  8km/h 34% 0.00in /  0mm 243.0 W/m2
17:06 82.0 °F /  27.8 °C 50.9 °F /  10.5 °C 30.16in /  1021.2hPa Calm   2.0mph /  3.2km/h 34% 0.00in /  0mm 220.0 W/m2
17:11 82.0 °F /  27.8 °C 50.9 °F /  10.5 °C 30.16in /  1021.2hPa Calm   3.0mph /  4.8km/h 34% 0.00in /  0mm 209.0 W/m2
17:17 81.7 °F /  27.6 °C 51.4 °F /  10.8 °C 30.16in /  1021.2hPa NNW 2.0mph /  3.2km/h 2.0mph /  3.2km/h 35% 0.00in /  0mm 220.0 W/m2
17:22 81.5 °F /  27.5 °C 50.4 °F /  10.2 °C 30.16in /  1021.2hPa Calm   3.0mph /  4.8km/h 34% 0.00in /  0mm 357.0 W/m2
17:27 81.7 °F /  27.6 °C 50.5 °F /  10.3 °C 30.16in /  1021.2hPa NNW 4.0mph /  6.4km/h 8.0mph /  12.9km/h 34% 0.00in /  0mm 415.0 W/m2
17:32 82.0 °F /  27.8 °C 50.9 °F /  10.5 °C 30.16in /  1021.2hPa NNW 0.9mph /  1.4km/h 6.0mph /  9.7km/h 34% 0.00in /  0mm 357.0 W/m2
17:37 82.2 °F /  27.9 °C 51.1 °F /  10.6 °C 30.16in /  1021.2hPa West 0.9mph /  1.4km/h 3.0mph /  4.8km/h 34% 0.00in /  0mm 434.0 W/m2
17:40 82.6 °F /  28.1 °C 50.5 °F /  10.3 °C 30.16in /  1021.2hPa NNW 0.9mph /  1.4km/h 7.0mph /  11.3km/h 33% 0.00in /  0mm 322.0 W/m2
17:45 82.6 °F /  28.1 °C 50.5 °F /  10.3 °C 30.16in /  1021.2hPa Calm   3.0mph /  4.8km/h 33% 0.00in /  0mm 174.0 W/m2
17:47 82.4 °F /  28 °C 50.4 °F /  10.2 °C 30.16in /  1021.2hPa Calm   3.0mph /  4.8km/h 33% 0.00in /  0mm 174.0 W/m2
17:52 82.0 °F /  27.8 °C 50.2 °F /  10.1 °C 30.16in /  1021.2hPa Calm   8.0mph /  12.9km/h 33% 0.00in /  0mm 237.0 W/m2
17:58 81.7 °F /  27.6 °C 50.5 °F /  10.3 °C 30.17in /  1021.6hPa WSW 2.0mph /  3.2km/h 3.0mph /  4.8km/h 34% 0.00in /  0mm 128.0 W/m2
18:03 81.0 °F /  27.2 °C 48.4 °F /  9.1 °C 30.17in /  1021.6hPa WSW 0.9mph /  1.4km/h 5.0mph /  8km/h 32% 0.00in /  0mm 111.0 W/m2
18:08 80.4 °F /  26.9 °C 49.5 °F /  9.7 °C 30.17in /  1021.6hPa Calm   2.0mph /  3.2km/h 34% 0.00in /  0mm 95.0 W/m2
18:13 80.1 °F /  26.7 °C 49.1 °F /  9.5 °C 30.17in /  1021.6hPa Calm   1.0mph /  1.6km/h 34% 0.00in /  0mm 77.0 W/m2
18:18 79.7 °F /  26.5 °C 48.9 °F /  9.4 °C 30.17in /  1021.6hPa WNW 2.9mph /  4.7km/h 5.0mph /  8km/h 34% 0.00in /  0mm 65.0 W/m2
18:24 79.3 °F /  26.3 °C 49.3 °F /  9.6 °C 30.17in /  1021.6hPa West 4.0mph /  6.4km/h 6.0mph /  9.7km/h 35% 0.00in /  0mm 58.0 W/m2
18:29 79.0 °F /  26.1 °C 49.8 °F /  9.9 °C 30.17in /  1021.6hPa West 2.0mph /  3.2km/h 5.0mph /  8km/h 36% 0.00in /  0mm 54.0 W/m2
18:30 78.8 °F /  26 °C 48.9 °F /  9.4 °C 30.17in /  1021.6hPa West 0.9mph /  1.4km/h 5.0mph /  8km/h 35% 0.00in /  0mm 54.0 W/m2
18:35 78.4 °F /  25.8 °C 49.3 °F /  9.6 °C 30.17in /  1021.6hPa SW 4.0mph /  6.4km/h 8.0mph /  12.9km/h 36% 0.00in /  0mm 51.0 W/m2
18:41 78.1 °F /  25.6 °C 48.9 °F /  9.4 °C 30.17in /  1021.6hPa Calm   3.0mph /  4.8km/h 36% 0.00in /  0mm 46.0 W/m2
18:46 77.7 °F /  25.4 °C 49.5 °F /  9.7 °C 30.18in /  1021.9hPa West 2.9mph /  4.7km/h 7.0mph /  11.3km/h 37% 0.00in /  0mm 44.0 W/m2
18:47 77.7 °F /  25.4 °C 47.8 °F /  8.8 °C 30.18in /  1021.9hPa WSW 2.0mph /  3.2km/h 7.0mph /  11.3km/h 35% 0.00in /  0mm 42.0 W/m2
18:53 77.5 °F /  25.3 °C 47.7 °F /  8.7 °C 30.18in /  1021.9hPa West 0.9mph /  1.4km/h 2.0mph /  3.2km/h 35% 0.00in /  0mm 32.0 W/m2
18:54 77.5 °F /  25.3 °C 48.6 °F /  9.2 °C 30.18in /  1021.9hPa Calm   2.0mph /  3.2km/h 36% 0.00in /  0mm 32.0 W/m2
18:59 77.5 °F /  25.3 °C 47.7 °F /  8.7 °C 30.18in /  1021.9hPa Calm   3.0mph /  4.8km/h 35% 0.00in /  0mm 23.0 W/m2
19:04 77.4 °F /  25.2 °C 47.5 °F /  8.6 °C 30.18in /  1021.9hPa West 2.9mph /  4.7km/h 6.0mph /  9.7km/h 35% 0.00in /  0mm 16.0 W/m2
19:09 77.4 °F /  25.2 °C 47.5 °F /  8.6 °C 30.18in /  1021.9hPa West 2.0mph /  3.2km/h 5.0mph /  8km/h 35% 0.00in /  0mm 11.0 W/m2
19:14 77.0 °F /  25 °C 46.4 °F /  8 °C 30.18in /  1021.9hPa Calm   6.0mph /  9.7km/h 34% 0.00in /  0mm 9.0 W/m2
19:15 77.0 °F /  25 °C 47.3 °F /  8.5 °C 30.18in /  1021.9hPa Calm   3.0mph /  4.8km/h 35% 0.00in /  0mm 9.0 W/m2
19:20 76.6 °F /  24.8 °C 46.9 °F /  8.3 °C 30.18in /  1021.9hPa Calm   2.0mph /  3.2km/h 35% 0.00in /  0mm 5.0 W/m2
19:25 76.5 °F /  24.7 °C 46.0 °F /  7.8 °C 30.18in /  1021.9hPa Calm   3.0mph /  4.8km/h 34% 0.00in /  0mm 5.0 W/m2
19:30 76.3 °F /  24.6 °C 46.6 °F /  8.1 °C 30.18in /  1021.9hPa WNW 2.9mph /  4.7km/h 3.0mph /  4.8km/h 35% 0.00in /  0mm 0.0 W/m2
19:36 75.9 °F /  24.4 °C 46.2 °F /  7.9 °C 30.18in /  1021.9hPa WSW 0.9mph /  1.4km/h 5.0mph /  8km/h 35% 0.00in /  0mm 0.0 W/m2
19:41 75.7 °F /  24.3 °C 46.9 °F /  8.3 °C 30.19in /  1022.2hPa West 2.0mph /  3.2km/h 4.0mph /  6.4km/h 36% 0.00in /  0mm 0.0 W/m2
19:46 75.6 °F /  24.2 °C 46.8 °F /  8.2 °C 30.19in /  1022.2hPa Calm   1.0mph /  1.6km/h 36% 0.00in /  0mm 0.0 W/m2
19:51 75.4 °F /  24.1 °C 46.6 °F /  8.1 °C 30.19in /  1022.2hPa Calm   1.0mph /  1.6km/h 36% 0.00in /  0mm 0.0 W/m2
19:56 75.2 °F /  24 °C 46.4 °F /  8 °C 30.19in /  1022.2hPa Calm   1.0mph /  1.6km/h 36% 0.00in /  0mm 0.0 W/m2
20:01 75.0 °F /  23.9 °C 46.2 °F /  7.9 °C 30.19in /  1022.2hPa Calm   3.0mph /  4.8km/h 36% 0.00in /  0mm 0.0 W/m2
20:06 74.8 °F /  23.8 °C 46.0 °F /  7.8 °C 30.19in /  1022.2hPa WSW 0.9mph /  1.4km/h 4.0mph /  6.4km/h 36% 0.00in /  0mm 0.0 W/m2
20:07 74.7 °F /  23.7 °C 45.9 °F /  7.7 °C 30.19in /  1022.2hPa Calm   4.0mph /  6.4km/h 36% 0.00in /  0mm 0.0 W/m2
20:09 74.7 °F /  23.7 °C 45.1 °F /  7.3 °C 30.19in /  1022.2hPa Calm   3.0mph /  4.8km/h 35% 0.00in /  0mm 0.0 W/m2
20:15 74.5 °F /  23.6 °C 42.6 °F /  5.9 °C 30.20in /  1022.6hPa West 2.0mph /  3.2km/h 9.0mph /  14.5km/h 32% 0.00in /  0mm 0.0 W/m2
20:22 74.3 °F /  23.5 °C 40.8 °F /  4.9 °C 30.21in /  1022.9hPa WSW 0.9mph /  1.4km/h 6.0mph /  9.7km/h 30% 0.00in /  0mm 0.0 W/m2
20:26 74.1 °F /  23.4 °C 39.9 °F /  4.4 °C 30.21in /  1022.9hPa WNW 0.9mph /  1.4km/h 6.0mph /  9.7km/h 29% 0.00in /  0mm 0.0 W/m2
20:31 73.9 °F /  23.3 °C 40.5 °F /  4.7 °C 30.21in /  1022.9hPa WSW 0.9mph /  1.4km/h 2.0mph /  3.2km/h 30% 0.00in /  0mm 0.0 W/m2
20:36 73.8 °F /  23.2 °C 40.5 °F /  4.7 °C 30.21in /  1022.9hPa WSW 2.0mph /  3.2km/h 3.0mph /  4.8km/h 30% 0.00in /  0mm 0.0 W/m2
20:39 73.6 °F /  23.1 °C 40.3 °F /  4.6 °C 30.21in /  1022.9hPa Calm   3.0mph /  4.8km/h 30% 0.00in /  0mm 0.0 W/m2
20:44 73.4 °F /  23 °C 41.0 °F /  5 °C 30.22in /  1023.2hPa WSW 4.0mph /  6.4km/h 5.0mph /  8km/h 31% 0.00in /  0mm 0.0 W/m2
20:49 73.0 °F /  22.8 °C 40.6 °F /  4.8 °C 30.22in /  1023.2hPa WSW 4.0mph /  6.4km/h 6.0mph /  9.7km/h 31% 0.00in /  0mm 0.0 W/m2
20:54 72.9 °F /  22.7 °C 41.4 °F /  5.2 °C 30.22in /  1023.2hPa Calm   1.0mph /  1.6km/h 32% 0.00in /  0mm 0.0 W/m2
21:00 72.7 °F /  22.6 °C 41.2 °F /  5.1 °C 30.23in /  1023.6hPa WSW 2.9mph /  4.7km/h 4.0mph /  6.4km/h 32% 0.00in /  0mm 0.0 W/m2
21:01 72.7 °F /  22.6 °C 40.3 °F /  4.6 °C 30.23in /  1023.6hPa Calm   4.0mph /  6.4km/h 31% 0.00in /  0mm 0.0 W/m2
21:07 72.3 °F /  22.4 °C 40.8 °F /  4.9 °C 30.23in /  1023.6hPa Calm   2.0mph /  3.2km/h 32% 0.00in /  0mm 0.0 W/m2
21:13 72.3 °F /  22.4 °C 39.9 °F /  4.4 °C 30.23in /  1023.6hPa WSW 0.9mph /  1.4km/h 3.0mph /  4.8km/h 31% 0.00in /  0mm 0.0 W/m2
21:16 72.3 °F /  22.4 °C 40.8 °F /  4.9 °C 30.23in /  1023.6hPa West 2.9mph /  4.7km/h 4.0mph /  6.4km/h 32% 0.00in /  0mm 0.0 W/m2
21:21 72.3 °F /  22.4 °C 40.8 °F /  4.9 °C 30.23in /  1023.6hPa SW 2.9mph /  4.7km/h 4.0mph /  6.4km/h 32% 0.00in /  0mm 0.0 W/m2
21:26 72.3 °F /  22.4 °C 39.9 °F /  4.4 °C 30.23in /  1023.6hPa SW 2.9mph /  4.7km/h 5.0mph /  8km/h 31% 0.00in /  0mm 0.0 W/m2
21:31 72.3 °F /  22.4 °C 39.9 °F /  4.4 °C 30.23in /  1023.6hPa Calm   5.0mph /  8km/h 31% 0.00in /  0mm 0.0 W/m2
21:36 72.3 °F /  22.4 °C 39.9 °F /  4.4 °C 30.23in /  1023.6hPa Calm   5.0mph /  8km/h 31% 0.00in /  0mm 0.0 W/m2
21:41 72.3 °F /  22.4 °C 39.9 °F /  4.4 °C 30.24in /  1023.9hPa West 2.0mph /  3.2km/h 4.0mph /  6.4km/h 31% 0.00in /  0mm 0.0 W/m2
21:45 72.3 °F /  22.4 °C 39.9 °F /  4.4 °C 30.24in /  1023.9hPa WSW 4.0mph /  6.4km/h 5.0mph /  8km/h 31% 0.00in /  0mm 0.0 W/m2
21:50 72.1 °F /  22.3 °C 39.9 °F /  4.4 °C 30.24in /  1023.9hPa SSW 2.0mph /  3.2km/h 4.0mph /  6.4km/h 31% 0.00in /  0mm 0.0 W/m2
21:55 72.1 °F /  22.3 °C 40.6 °F /  4.8 °C 30.24in /  1023.9hPa Calm   1.0mph /  1.6km/h 32% 0.00in /  0mm 0.0 W/m2
21:58 72.1 °F /  22.3 °C 40.6 °F /  4.8 °C 30.24in /  1023.9hPa Calm   1.0mph /  1.6km/h 32% 0.00in /  0mm 0.0 W/m2
22:03 72.0 °F /  22.2 °C 40.5 °F /  4.7 °C 30.24in /  1023.9hPa Calm   3.0mph /  4.8km/h 32% 0.00in /  0mm 0.0 W/m2
22:08 72.0 °F /  22.2 °C 40.5 °F /  4.7 °C 30.24in /  1023.9hPa Calm   1.0mph /  1.6km/h 32% 0.00in /  0mm 0.0 W/m2
22:14 72.0 °F /  22.2 °C 40.5 °F /  4.7 °C 30.24in /  1023.9hPa West 0.9mph /  1.4km/h 2.0mph /  3.2km/h 32% 0.00in /  0mm 0.0 W/m2
22:20 71.8 °F /  22.1 °C 39.6 °F /  4.2 °C 30.25in /  1024.3hPa West 2.9mph /  4.7km/h 5.0mph /  8km/h 31% 0.00in /  0mm 0.0 W/m2
22:25 71.8 °F /  22.1 °C 40.3 °F /  4.6 °C 30.25in /  1024.3hPa WSW 2.9mph /  4.7km/h 7.0mph /  11.3km/h 32% 0.00in /  0mm 0.0 W/m2
22:30 71.6 °F /  22 °C 40.1 °F /  4.5 °C 30.25in /  1024.3hPa West 6.0mph /  9.7km/h 6.0mph /  9.7km/h 32% 0.00in /  0mm 0.0 W/m2
22:35 71.4 °F /  21.9 °C 40.8 °F /  4.9 °C 30.25in /  1024.3hPa Calm   5.0mph /  8km/h 33% 0.00in /  0mm 0.0 W/m2
22:39 71.4 °F /  21.9 °C 41.5 °F /  5.3 °C 30.26in /  1024.6hPa WNW 0.9mph /  1.4km/h 1.0mph /  1.6km/h 34% 0.00in /  0mm 0.0 W/m2
22:49 71.2 °F /  21.8 °C 40.6 °F /  4.8 °C 30.26in /  1024.6hPa WSW 0.9mph /  1.4km/h 5.0mph /  8km/h 33% 0.00in /  0mm 0.0 W/m2
22:54 71.1 °F /  21.7 °C 41.4 °F /  5.2 °C 30.26in /  1024.6hPa WSW 4.0mph /  6.4km/h 5.0mph /  8km/h 34% 0.00in /  0mm 0.0 W/m2
22:59 71.1 °F /  21.7 °C 40.5 °F /  4.7 °C 30.26in /  1024.6hPa SW 0.9mph /  1.4km/h 3.0mph /  4.8km/h 33% 0.00in /  0mm 0.0 W/m2
23:04 71.1 °F /  21.7 °C 41.4 °F /  5.2 °C 30.26in /  1024.6hPa WSW 2.0mph /  3.2km/h 8.0mph /  12.9km/h 34% 0.00in /  0mm 0.0 W/m2
23:10 70.9 °F /  21.6 °C 41.2 °F /  5.1 °C 30.26in /  1024.6hPa WSW 4.0mph /  6.4km/h 4.0mph /  6.4km/h 34% 0.00in /  0mm 0.0 W/m2
23:12 70.9 °F /  21.6 °C 41.2 °F /  5.1 °C 30.26in /  1024.6hPa WSW 0.9mph /  1.4km/h 4.0mph /  6.4km/h 34% 0.00in /  0mm 0.0 W/m2
23:17 70.9 °F /  21.6 °C 41.2 °F /  5.1 °C 30.26in /  1024.6hPa West 0.9mph /  1.4km/h 2.0mph /  3.2km/h 34% 0.00in /  0mm 0.0 W/m2
23:22 70.9 °F /  21.6 °C 41.9 °F /  5.5 °C 30.26in /  1024.6hPa West 0.9mph /  1.4km/h 3.0mph /  4.8km/h 35% 0.00in /  0mm 0.0 W/m2
23:25 70.7 °F /  21.5 °C 43.9 °F /  6.6 °C 30.26in /  1024.6hPa West 2.9mph /  4.7km/h 5.0mph /  8km/h 38% 0.00in /  0mm 0.0 W/m2
23:29 70.5 °F /  21.4 °C 43.7 °F /  6.5 °C 30.26in /  1024.6hPa Calm   3.0mph /  4.8km/h 38% 0.00in /  0mm 0.0 W/m2
23:34 70.2 °F /  21.2 °C 43.3 °F /  6.3 °C 30.26in /  1024.6hPa WNW 0.9mph /  1.4km/h 3.0mph /  4.8km/h 38% 0.00in /  0mm 0.0 W/m2
23:39 70.0 °F /  21.1 °C 42.4 °F /  5.8 °C 30.26in /  1024.6hPa WSW 0.9mph /  1.4km/h 3.0mph /  4.8km/h 37% 0.00in /  0mm 0.0 W/m2
23:44 69.6 °F /  20.9 °C 42.3 °F /  5.7 °C 30.26in /  1024.6hPa WSW 2.0mph /  3.2km/h 5.0mph /  8km/h 37% 0.00in /  0mm 0.0 W/m2
23:49 69.6 °F /  20.9 °C 42.8 °F /  6 °C 30.25in /  1024.3hPa Calm   3.0mph /  4.8km/h 38% 0.00in /  0mm 0.0 W/m2
23:55 69.6 °F /  20.9 °C 42.3 °F /  5.7 °C 30.25in /  1024.3hPa West 2.0mph /  3.2km/h 3.0mph /  4.8km/h 37% 0.00in /  0mm 0.0 W/m2
Olympia, Windhoek, Namibia
Compliments of Weather Underground - 3.5 mb